createdAt,value
2023-02-24T00:01:25.111Z,99878.69
2023-02-24T00:08:07.446Z,99874.34
2023-02-24T00:14:49.790Z,99869.13
2023-02-24T00:21:32.282Z,99863.00
2023-02-24T00:28:14.610Z,99850.81
2023-02-24T00:34:58.140Z,99833.44
2023-02-24T00:41:43.218Z,99820.41
2023-02-24T00:48:28.410Z,99816.94
2023-02-24T00:55:15.082Z,99809.97
2023-02-24T01:01:57.628Z,99796.06
2023-02-24T01:08:42.900Z,99790.84
2023-02-24T01:15:25.710Z,99783.91
2023-02-24T01:22:10.160Z,99775.22
2023-02-24T01:28:55.685Z,99769.97
2023-02-24T01:35:38.043Z,99763.84
2023-02-24T01:42:22.123Z,99749.94
2023-02-24T01:49:34.772Z,99735.16
2023-02-24T01:56:17.616Z,99734.25
2023-02-24T02:03:33.848Z,99722.06
2023-02-24T02:10:18.557Z,99722.88
2023-02-24T02:17:13.491Z,99714.16
2023-02-24T02:24:26.937Z,99712.41
2023-02-24T02:32:07.797Z,99701.97
2023-02-24T02:39:03.271Z,99695.88
2023-02-24T02:46:17.867Z,99675.88
2023-02-24T02:53:12.295Z,99675.81
2023-02-24T03:00:21.395Z,99670.59
2023-02-24T03:07:05.350Z,99663.69
2023-02-24T03:13:55.501Z,99665.44
2023-02-24T03:20:51.703Z,99661.06
2023-02-24T03:27:52.829Z,99650.63
2023-02-24T03:35:07.854Z,99640.16
2023-02-24T03:42:03.594Z,99635.78
2023-02-24T03:49:01.313Z,99643.56
2023-02-24T03:55:48.705Z,99629.59
2023-02-24T04:02:33.973Z,99620.00
2023-02-24T04:09:39.142Z,99610.44
2023-02-24T04:16:47.339Z,99610.38
2023-02-24T04:23:44.884Z,99606.91
2023-02-24T04:30:35.244Z,99604.25
2023-02-24T04:37:23.210Z,99607.72
2023-02-24T04:44:06.828Z,99597.22
2023-02-24T04:50:55.367Z,99594.63
2023-02-24T04:57:40.648Z,99599.81
2023-02-24T05:04:24.147Z,99596.31
2023-02-24T05:11:07.239Z,99581.56
2023-02-24T05:17:52.634Z,99580.66
2023-02-24T05:24:35.682Z,99577.19
2023-02-24T05:31:24.208Z,99569.34
2023-02-24T05:38:08.520Z,99570.22
2023-02-24T05:44:51.022Z,99562.38
2023-02-24T05:51:37.131Z,99558.06
2023-02-24T05:58:19.597Z,99545.91
2023-02-24T06:05:08.937Z,99539.03
2023-02-24T06:11:51.497Z,99536.50
2023-02-24T06:18:34.140Z,99542.69
2023-02-24T06:25:18.597Z,99532.28
2023-02-24T06:32:08.905Z,99534.09
2023-02-24T06:38:52.778Z,99535.81
2023-02-24T06:45:35.652Z,99538.41
2023-02-24T06:52:19.497Z,99541.06
2023-02-24T06:59:02.069Z,99527.19
2023-02-24T07:06:11.103Z,99528.94
2023-02-24T07:12:55.106Z,99525.53
2023-02-24T07:19:37.704Z,99523.88
2023-02-24T07:26:24.092Z,99507.47
2023-02-24T07:33:08.422Z,99497.94
2023-02-24T07:39:51.883Z,99500.50
2023-02-24T07:46:34.328Z,99484.91
2023-02-24T07:53:18.899Z,99482.28
2023-02-24T08:00:14.308Z,99480.69
2023-02-24T08:06:59.174Z,99464.28
2023-02-24T08:13:41.499Z,99467.91
2023-02-24T08:20:25.264Z,99467.13
2023-02-24T08:27:07.612Z,99467.94
2023-02-24T08:33:50.439Z,99460.13
2023-02-24T08:40:39.790Z,99459.31
2023-02-24T08:47:31.031Z,99470.84
2023-02-24T08:54:19.060Z,99457.22
2023-02-24T09:01:03.781Z,99473.97
2023-02-24T09:07:54.763Z,99461.09
2023-02-24T09:14:37.579Z,99461.25
2023-02-24T09:21:38.494Z,99452.72
2023-02-24T09:28:24.797Z,99452.81
2023-02-24T09:35:07.587Z,99442.50
2023-02-24T09:41:58.866Z,99455.47
2023-02-24T09:49:12.929Z,99444.16
2023-02-24T09:56:16.198Z,99442.44
2023-02-24T10:03:44.522Z,99431.25
2023-02-24T10:10:35.938Z,99430.47
2023-02-24T10:17:25.597Z,99438.31
2023-02-24T10:24:30.790Z,99412.28
2023-02-24T10:31:30.015Z,99400.06
2023-02-24T10:38:12.914Z,99386.09
2023-02-24T10:45:18.361Z,99376.53
2023-02-24T10:52:09.095Z,99355.59
2023-02-24T10:59:24.640Z,99344.94
2023-02-24T11:06:43.205Z,99320.34
2023-02-24T11:13:44.825Z,99306.22
2023-02-24T11:20:51.774Z,99309.47
2023-02-24T11:27:34.855Z,99294.63
2023-02-24T11:34:25.193Z,99280.59
2023-02-24T11:41:26.182Z,99273.63
2023-02-24T11:48:32.413Z,99264.91
2023-02-24T11:55:38.837Z,99251.97
2023-02-24T12:02:47.817Z,99247.66
2023-02-24T12:09:44.960Z,99231.09
2023-02-24T12:16:38.158Z,99214.56
2023-02-24T12:23:32.543Z,99207.63
2023-02-24T12:30:49.009Z,99199.78
2023-02-24T12:38:03.600Z,99195.44
2023-02-24T12:45:03.597Z,99179.00
2023-02-24T12:51:57.962Z,99172.94
2023-02-24T12:58:45.676Z,99164.28
2023-02-24T13:05:29.713Z,99142.63
2023-02-24T13:12:23.947Z,99150.41
2023-02-24T13:19:29.341Z,99137.38
2023-02-24T13:26:11.677Z,99135.56
2023-02-24T13:33:18.841Z,99123.25
2023-02-24T13:40:12.703Z,99117.91
2023-02-24T13:47:11.751Z,99107.41
2023-02-24T13:54:50.150Z,99089.84
2023-02-24T14:01:45.885Z,99087.09
2023-02-24T14:08:42.590Z,99079.09
2023-02-24T14:15:27.896Z,99072.94
2023-02-24T14:22:19.200Z,99073.84
2023-02-24T14:29:02.268Z,99063.50
2023-02-24T14:35:47.543Z,99059.28
2023-02-24T14:42:29.793Z,99043.69
2023-02-24T14:49:25.688Z,99041.19
2023-02-24T14:56:11.633Z,99025.66
2023-02-24T15:03:23.038Z,99016.16
2023-02-24T15:10:07.712Z,99004.13
2023-02-24T15:16:56.926Z,99002.50
2023-02-24T15:23:39.460Z,98986.94
2023-02-24T15:30:52.076Z,98983.59
2023-02-24T15:37:44.856Z,98974.97
2023-02-24T15:44:36.357Z,98957.59
2023-02-24T15:51:45.467Z,98949.84
2023-02-24T15:58:27.826Z,98939.56
2023-02-24T16:05:14.039Z,98919.66
2023-02-24T16:11:57.213Z,98918.03
2023-02-24T16:18:39.782Z,98909.50
2023-02-24T16:25:22.772Z,98920.84
2023-02-24T16:32:05.566Z,98909.66
2023-02-24T16:38:50.970Z,98901.06
2023-02-24T16:45:35.878Z,98898.56
2023-02-24T16:52:19.385Z,98896.06
2023-02-24T16:59:04.777Z,98897.91
2023-02-24T17:05:47.785Z,98885.75
2023-02-24T17:12:30.107Z,98872.84
2023-02-24T17:19:13.218Z,98861.69
2023-02-24T17:25:59.937Z,98846.19
2023-02-24T17:32:42.502Z,98838.47
2023-02-24T17:39:24.930Z,98822.97
2023-02-24T17:46:07.752Z,98826.56
2023-02-24T17:52:50.159Z,98816.16
2023-02-24T17:59:32.469Z,98813.56
2023-02-24T18:06:14.782Z,98813.56
2023-02-24T18:12:57.048Z,98797.09
2023-02-24T18:19:39.663Z,98784.09
2023-02-24T18:26:24.150Z,98782.31
2023-02-24T18:33:07.060Z,98777.97
2023-02-24T18:39:50.862Z,98764.13
2023-02-24T18:46:36.313Z,98772.84
2023-02-24T18:53:19.914Z,98759.91
2023-02-24T19:00:06.704Z,98753.06
2023-02-24T19:06:49.268Z,98750.56
2023-02-24T19:13:32.078Z,98741.97
2023-02-24T19:20:15.370Z,98727.28
2023-02-24T19:26:57.681Z,98723.00
2023-02-24T19:33:40.163Z,98705.72
2023-02-24T19:40:23.619Z,98699.69
2023-02-24T19:47:05.937Z,98693.63
2023-02-24T19:53:55.775Z,98697.06
2023-02-24T20:00:38.088Z,98684.94
2023-02-24T20:07:20.628Z,98675.34
2023-02-24T20:14:03.940Z,98671.88
2023-02-24T20:20:48.932Z,98676.19
2023-02-24T20:27:33.581Z,98671.75
2023-02-24T20:34:16.874Z,98664.88
2023-02-24T20:41:04.001Z,98663.09
2023-02-24T20:47:46.309Z,98658.69
2023-02-24T20:54:29.017Z,98653.47
2023-02-24T21:01:13.556Z,98644.84
2023-02-24T21:07:55.994Z,98638.81
2023-02-24T21:14:38.462Z,98633.59
2023-02-24T21:21:21.279Z,98615.41
2023-02-24T21:28:03.886Z,98609.34
2023-02-24T21:34:46.371Z,98592.06
2023-02-24T21:41:28.714Z,98588.59
2023-02-24T21:48:11.693Z,98572.16
2023-02-24T21:54:54.166Z,98573.91
2023-02-24T22:01:41.312Z,98565.28
2023-02-24T22:08:25.068Z,98567.03
2023-02-24T22:15:09.030Z,98572.19
2023-02-24T22:21:51.724Z,98554.88
2023-02-24T22:28:36.110Z,98554.88
2023-02-24T22:35:21.727Z,98552.25
2023-02-24T22:42:04.593Z,98549.66
2023-02-24T22:48:47.420Z,98545.28
2023-02-24T22:55:29.700Z,98539.25
2023-02-24T23:02:12.041Z,98536.66
2023-02-24T23:08:55.141Z,98535.75
2023-02-24T23:15:39.209Z,98527.97
2023-02-24T23:22:21.867Z,98514.97
2023-02-24T23:29:06.403Z,98511.44
2023-02-24T23:35:49.109Z,98495.84
2023-02-24T23:42:31.438Z,98488.00
2023-02-24T23:49:13.789Z,98481.88
2023-02-24T23:55:56.102Z,98468.88
